Airfield :
LOGIN :

Register | Disclaimer

   EN    FR    IT 

 










Legend :    VFR   Marginal VFR   IFR   Intensive IFR   Very Intensive IFR
Visi :
Ceiling :
>= 8 km
>= 3000ft
5 to 8 km
1000 to 3000 ft
1500m to 5 km
500 to 1000 ft
800 to 1500m
200 to 500 ft
< 800m
< 200 ft
Symbols :   Thunderstorms  Fog  Heavy snow  Heavy precipitations  Wind > 20 kt
SIGMETs :     Misc.  Thunderstorms  Icing  Turbulence  Mountain Waves  Volcanic Ashes







- Airport Elevation : 242 ft
- IATA code : DUB


EIDW - Dublin

CURRENT METAR :
  • 211000Z 27022G32KT 9999 FEW012 SCT023 BKN035 11/08 Q1003 NOSIG

EXPIRED METARs :
  • 210930Z 25014G26KT 210V280 9999 FEW012 SCT021 BKN035 10/07 Q1003 NOSIG
  • 210900Z 25014G24KT 210V280 9999 FEW012 SCT021 BKN035 08/07 Q1002 NOSIG
  • 210830Z 25012G23KT 210V280 9000 -SHRA SCT012 SCT021 BKN035 08/06 Q1002 NOSIG
  • 210800Z 25013G23KT 190V290 9999 -SHRA FEW012 SCT023 BKN140 08/06 Q1002 NOSIG
  • 210730Z 24013G26KT 200V310 9999 FEW015 BKN200 07/05 Q1001 NOSIG

TAF AMD TAF EIDW
Valid from the 21 at 09:00 until the 22 at 06:00 UTC


210904Z 2109/2206 25015G25KT 9999 FEW015 SCT035
BECMG 2109/2111 26020G30KT
TEMPO 2109/2115 -SHRA FEW018CB
TEMPO 2110/2114 27025G38KT
BECMG 2115/2118 28015G25KT
BECMG 2118/2120 26010KT
No reported NOTAMs for that airfield.
2 SIGMETs reported for the Shannon FIR (EISN) :
 
Severe turbulence
EISN SIGMET 02 VALID 210900/211200 EINN
EISN SHANNON FIR/UIR SEV TURB FCST WI N5301 W01500 - N5255 W01400 - N5100 W01331 - N5100 W01500 - N5301 W01500 FL200/370 MOV ENE 25KT NC=
Severe turbulence
EISN SIGMET 01 VALID 210806/211206 EINN
EISN SHANNON FIR SEV TURB FCST N OF LINE N5434 W01000 - N5425 W00810 SFC/FL060 MOV SE 30KT NC=



MET'MAP, your aeronautical weather chart ! - Copyright ORBIFLY December 2007 - Disclaimer

ORBIFLY MET'MAP TEAM :

Programming & Development : Alexandra Zaïnal
Concept & Development : Baudouin d'Aumeries
Co-Development & Prog : Marc-Olivier Méhu
Technical & hardware support : Manuel Goepfert

Contact : metmap@orbifly.com




SOURCES & CREDITS :

   NOAA